createdAt,value
2023-04-03T00:01:45.075Z,92030.78
2023-04-03T00:04:14.706Z,92028.91
2023-04-03T00:06:44.138Z,92035.66
2023-04-03T00:09:14.892Z,92037.31
2023-04-03T00:11:44.269Z,92040.41
2023-04-03T00:14:13.734Z,92036.66
2023-04-03T00:16:43.178Z,92030.97
2023-04-03T00:19:13.796Z,92030.03
2023-04-03T00:21:43.201Z,92036.84
2023-04-03T00:24:12.704Z,92033.03
2023-04-03T00:26:43.708Z,92029.13
2023-04-03T00:29:13.070Z,92027.97
2023-04-03T00:31:43.272Z,92033.97
2023-04-03T00:34:12.724Z,92035.84
2023-04-03T00:36:42.223Z,92033.56
2023-04-03T00:39:11.646Z,92034.69
2023-04-03T00:41:42.344Z,92037.84
2023-04-03T00:44:41.357Z,92039.69
2023-04-03T00:50:12.195Z,92037.34
2023-04-03T00:52:42.498Z,92042.91
2023-04-03T00:55:13.078Z,92045.19
2023-04-03T00:57:42.475Z,92053.59
2023-04-03T01:00:16.964Z,92063.50
2023-04-03T01:02:47.693Z,92052.47
2023-04-03T01:05:21.074Z,92053.41
2023-04-03T01:07:52.176Z,92053.09
2023-04-03T01:10:22.259Z,92054.00
2023-04-03T01:12:53.087Z,92057.00
2023-04-03T01:15:26.101Z,92056.47
2023-04-03T01:17:57.676Z,92057.69
2023-04-03T01:21:25.638Z,92054.25
2023-04-03T01:24:14.691Z,92050.06
2023-04-03T01:26:44.537Z,92062.34
2023-04-03T01:29:13.913Z,92058.94
2023-04-03T01:31:56.914Z,92055.06
2023-04-03T01:34:27.707Z,92058.63
2023-04-03T01:36:57.530Z,92052.81
2023-04-03T01:39:26.997Z,92056.41
2023-04-03T01:41:56.677Z,92054.63
2023-04-03T01:44:26.066Z,92060.47
2023-04-03T01:46:56.765Z,92055.75
2023-04-03T01:49:26.117Z,92057.78
2023-04-03T01:51:55.850Z,92050.88
2023-04-03T01:54:25.222Z,92052.63
2023-04-03T01:56:55.062Z,92047.75
2023-04-03T01:59:24.420Z,92053.75
2023-04-03T02:01:53.675Z,92047.88
2023-04-03T02:04:24.804Z,92046.75
2023-04-03T02:06:54.359Z,92046.41
2023-04-03T02:09:23.773Z,92047.69
2023-04-03T02:11:53.052Z,92052.09
2023-04-03T02:14:23.047Z,92050.44
2023-04-03T02:16:52.648Z,92045.00
2023-04-03T02:19:23.747Z,92049.88
2023-04-03T02:21:53.033Z,92047.75
2023-04-03T02:24:22.693Z,92047.38
2023-04-03T02:26:52.017Z,92052.53
2023-04-03T02:29:21.577Z,92047.75
2023-04-03T02:31:50.990Z,92045.28
2023-04-03T02:34:22.422Z,92038.19
2023-04-03T02:36:51.742Z,92048.50
2023-04-03T02:39:21.521Z,92045.38
2023-04-03T02:41:51.192Z,92048.06
2023-04-03T02:44:20.707Z,92045.00
2023-04-03T02:46:50.267Z,92044.28
2023-04-03T02:49:19.646Z,92052.91
2023-04-03T02:51:50.422Z,92051.38
2023-04-03T02:54:19.889Z,92041.94
2023-04-03T02:56:49.232Z,92043.81
2023-04-03T02:59:19.260Z,92048.97
2023-04-03T03:01:49.328Z,92044.63
2023-04-03T03:04:18.782Z,92043.09
2023-04-03T03:06:49.474Z,92038.81
2023-04-03T03:09:19.916Z,92049.78
2023-04-03T03:11:49.224Z,92035.91
2023-04-03T03:14:18.549Z,92041.72
2023-04-03T03:16:47.942Z,92038.66
2023-04-03T03:19:17.269Z,92034.03
2023-04-03T03:21:46.655Z,92022.88
2023-04-03T03:24:18.222Z,92026.56
2023-04-03T03:26:47.669Z,92024.19
2023-04-03T03:29:17.035Z,92023.44
2023-04-03T03:31:46.616Z,92021.78
2023-04-03T03:34:16.055Z,92018.56
2023-04-03T03:36:46.014Z,92017.03
2023-04-03T03:39:16.949Z,92010.00
2023-04-03T03:41:46.299Z,92010.94
2023-04-03T03:44:16.277Z,92005.84
2023-04-03T03:46:45.974Z,92003.19
2023-04-03T03:51:10.938Z,91993.34
2023-04-03T03:53:41.644Z,91999.44
2023-04-03T03:56:11.070Z,91997.84
2023-04-03T03:58:41.878Z,91995.94
2023-04-03T04:01:11.328Z,92003.66
2023-04-03T04:03:40.981Z,92001.91
2023-04-03T04:06:11.762Z,92001.72
2023-04-03T04:08:41.185Z,92006.88
2023-04-03T04:11:11.182Z,92006.25
2023-04-03T04:13:40.561Z,92009.72
2023-04-03T04:16:11.072Z,92013.03
2023-04-03T04:18:40.382Z,92019.56
2023-04-03T04:21:11.112Z,92016.81
2023-04-03T04:23:40.531Z,92034.50
2023-04-03T04:26:09.858Z,92031.63
2023-04-03T04:28:39.258Z,92034.31
2023-04-03T04:31:08.646Z,92036.78
2023-04-03T04:33:38.027Z,92049.25
2023-04-03T04:36:08.058Z,92042.97
2023-04-03T04:38:39.745Z,92056.34
2023-04-03T04:41:09.137Z,92068.03
2023-04-03T04:43:39.037Z,92067.66
2023-04-03T04:46:11.583Z,92067.38
2023-04-03T04:48:41.585Z,92083.16
2023-04-03T04:51:11.329Z,92067.94
2023-04-03T04:53:42.062Z,92072.16
2023-04-03T04:56:13.024Z,92079.88
2023-04-03T04:58:42.471Z,92080.88
2023-04-03T05:01:13.755Z,92077.31
2023-04-03T05:03:43.632Z,92078.44
2023-04-03T05:06:12.918Z,92075.91
2023-04-03T05:08:43.582Z,92083.72
2023-04-03T05:11:12.952Z,92088.75
2023-04-03T05:13:42.275Z,92085.34
2023-04-03T05:16:11.827Z,92081.28
2023-04-03T05:18:41.160Z,92081.66
2023-04-03T05:21:10.405Z,92080.50
2023-04-03T05:23:39.745Z,92070.59
2023-04-03T05:26:10.654Z,92068.56
2023-04-03T05:28:40.219Z,92073.16
2023-04-03T05:31:09.517Z,92078.72
2023-04-03T05:33:38.890Z,92065.19
2023-04-03T05:36:09.802Z,92068.06
2023-04-03T05:38:39.529Z,92060.19
2023-04-03T05:41:10.618Z,92068.94
2023-04-03T05:43:40.211Z,92068.53
2023-04-03T05:46:14.558Z,92068.06
2023-04-03T05:48:43.881Z,92078.59
2023-04-03T05:51:19.166Z,92088.06
2023-04-03T05:53:50.471Z,92082.66
2023-04-03T05:56:21.435Z,92078.06
2023-04-03T05:58:51.008Z,92069.69
2023-04-03T06:01:20.607Z,92084.47
2023-04-03T06:03:50.227Z,92074.88
2023-04-03T06:06:19.598Z,92075.81
2023-04-03T06:08:48.959Z,92072.38
2023-04-03T06:11:19.730Z,92077.06
2023-04-03T06:13:49.116Z,92075.97
2023-04-03T06:16:20.748Z,92082.09
2023-04-03T06:18:51.419Z,92083.13
2023-04-03T06:21:21.012Z,92073.84
2023-04-03T06:23:50.734Z,92089.31
2023-04-03T06:26:22.006Z,92096.84
2023-04-03T06:28:51.421Z,92092.00
2023-04-03T06:31:21.070Z,92099.09
2023-04-03T06:33:50.559Z,92103.78
2023-04-03T06:36:22.293Z,92087.03
2023-04-03T06:38:52.221Z,92103.31
2023-04-03T06:41:23.215Z,92100.88
2023-04-03T06:43:52.673Z,92100.25
2023-04-03T06:46:24.690Z,92107.53
2023-04-03T06:51:22.056Z,92094.41
2023-04-03T06:53:52.713Z,92102.56
2023-04-03T06:56:22.594Z,92102.16
2023-04-03T06:58:52.736Z,92097.09
2023-04-03T07:01:22.566Z,92089.72
2023-04-03T07:04:15.205Z,92096.19
2023-04-03T07:06:46.042Z,92098.97
2023-04-03T07:09:15.264Z,92100.78
2023-04-03T07:11:45.012Z,92106.00
2023-04-03T07:14:14.452Z,92098.34
2023-04-03T07:16:43.842Z,92101.38
2023-04-03T07:19:13.189Z,92094.81
2023-04-03T07:21:43.213Z,92100.56
2023-04-03T07:24:16.525Z,92094.09
2023-04-03T07:26:46.555Z,92088.34
2023-04-03T07:29:15.937Z,92096.75
2023-04-03T07:31:46.016Z,92097.00
2023-04-03T07:34:15.480Z,92093.88
2023-04-03T07:36:44.803Z,92095.81
2023-04-03T07:39:15.758Z,92090.69
2023-04-03T07:41:45.107Z,92091.81
2023-04-03T07:44:14.517Z,92087.84
2023-04-03T07:46:43.893Z,92087.53
2023-04-03T07:49:13.319Z,92079.81
2023-04-03T07:51:42.874Z,92071.41
2023-04-03T07:54:12.374Z,92079.63
2023-04-03T07:56:43.935Z,92077.84
2023-04-03T07:59:13.736Z,92074.81
2023-04-03T08:01:43.133Z,92078.94
2023-04-03T08:04:12.801Z,92072.56
2023-04-03T08:06:46.978Z,92077.41
2023-04-03T08:09:17.515Z,92075.72
2023-04-03T08:11:49.137Z,92072.53
2023-04-03T08:14:19.685Z,92071.59
2023-04-03T08:16:50.910Z,92068.38
2023-04-03T08:19:25.994Z,92068.13
2023-04-03T08:21:56.408Z,92071.28
2023-04-03T08:24:25.889Z,92065.47
2023-04-03T08:26:56.754Z,92067.13
2023-04-03T08:29:26.495Z,92061.22
2023-04-03T08:31:56.197Z,92066.16
2023-04-03T08:34:25.578Z,92065.03
2023-04-03T08:36:54.945Z,92059.94
2023-04-03T08:39:24.401Z,92063.38
2023-04-03T08:41:55.323Z,92057.50
2023-04-03T08:44:32.120Z,92052.91
2023-04-03T08:47:15.161Z,92051.72
2023-04-03T08:49:48.812Z,92047.72
2023-04-03T08:52:24.990Z,92043.97
2023-04-03T08:54:58.796Z,92046.84
2023-04-03T08:57:35.022Z,92042.94
2023-04-03T09:00:12.598Z,92038.69
2023-04-03T09:02:48.308Z,92040.50
2023-04-03T09:05:23.423Z,92035.53
2023-04-03T09:08:02.211Z,92035.09
2023-04-03T09:10:36.484Z,92029.84
2023-04-03T09:13:12.156Z,92024.25
2023-04-03T09:15:41.455Z,92026.88
2023-04-03T09:18:19.736Z,92028.13
2023-04-03T09:20:59.308Z,92018.06
2023-04-03T09:23:34.933Z,92024.41
2023-04-03T09:26:08.251Z,92020.31
2023-04-03T09:28:50.335Z,92031.31
2023-04-03T09:31:26.241Z,92032.91
2023-04-03T09:34:01.170Z,92035.91
2023-04-03T09:36:45.607Z,92033.59
2023-04-03T09:39:18.553Z,92034.56
2023-04-03T09:42:02.550Z,92030.59
2023-04-03T09:44:36.481Z,92033.91
2023-04-03T09:47:25.589Z,92039.84
2023-04-03T09:51:19.643Z,92035.63
2023-04-03T09:53:49.141Z,92043.34
2023-04-03T09:56:28.379Z,92038.84
2023-04-03T09:59:18.169Z,92035.00
2023-04-03T10:02:02.022Z,92033.50
2023-04-03T10:04:42.777Z,92035.75
2023-04-03T10:07:35.471Z,92033.25
2023-04-03T10:10:21.466Z,92025.72
2023-04-03T10:12:51.277Z,92019.56
2023-04-03T10:15:21.909Z,92020.00
2023-04-03T10:18:01.408Z,92018.50
2023-04-03T10:20:40.384Z,92018.94
2023-04-03T10:23:25.050Z,92023.91
2023-04-03T10:26:13.243Z,92011.13
2023-04-03T10:28:54.775Z,92013.66
2023-04-03T10:31:31.129Z,92009.94
2023-04-03T10:34:08.931Z,92013.69
2023-04-03T10:36:46.487Z,92009.84
2023-04-03T10:39:30.345Z,92004.06
2023-04-03T10:42:17.112Z,92001.22
2023-04-03T10:45:11.225Z,92005.47
2023-04-03T10:47:50.830Z,92007.53
2023-04-03T10:50:42.590Z,92004.97
2023-04-03T10:53:24.202Z,92005.41
2023-04-03T10:56:05.517Z,92007.47
2023-04-03T10:58:41.108Z,92006.78
2023-04-03T11:01:14.344Z,92014.09
2023-04-03T11:03:48.628Z,92005.16
2023-04-03T11:06:22.317Z,92012.56
2023-04-03T11:08:58.033Z,91998.13
2023-04-03T11:11:34.157Z,92011.34
2023-04-03T11:14:07.961Z,92013.69
2023-04-03T11:16:51.080Z,92020.56
2023-04-03T11:19:32.114Z,92010.09
2023-04-03T11:22:11.075Z,92010.66
2023-04-03T11:24:46.099Z,92015.19
2023-04-03T11:27:24.277Z,92004.41
2023-04-03T11:29:56.336Z,92003.06
2023-04-03T11:32:51.952Z,92003.09
2023-04-03T11:35:23.320Z,92013.25
2023-04-03T11:37:55.497Z,92022.66
2023-04-03T11:40:31.199Z,92019.63
2023-04-03T11:43:20.280Z,92026.78
2023-04-03T11:46:08.458Z,92032.00
2023-04-03T11:48:57.670Z,92039.28
2023-04-03T11:51:47.880Z,92027.84
2023-04-03T11:54:49.925Z,92029.47
2023-04-03T11:58:09.316Z,92023.03
2023-04-03T12:01:03.802Z,92021.75
2023-04-03T12:03:53.587Z,92025.88
2023-04-03T12:07:11.194Z,92025.44
2023-04-03T12:10:31.834Z,92019.81
2023-04-03T12:13:05.582Z,92011.72
2023-04-03T12:15:55.760Z,92018.72
2023-04-03T12:19:03.967Z,92015.13
2023-04-03T12:22:12.522Z,92005.50
2023-04-03T12:24:46.500Z,92003.81
2023-04-03T12:27:41.623Z,91990.91
2023-04-03T12:30:30.475Z,91988.13
2023-04-03T12:33:23.656Z,91979.31
2023-04-03T12:36:09.583Z,91976.81
2023-04-03T12:39:23.974Z,91980.13
2023-04-03T12:42:03.434Z,91969.53
2023-04-03T12:44:58.094Z,91973.19
2023-04-03T12:47:34.219Z,91972.69
2023-04-03T12:51:11.030Z,91961.44
2023-04-03T12:53:41.897Z,91962.00
2023-04-03T12:56:27.513Z,91952.94
2023-04-03T12:58:59.633Z,91946.91
2023-04-03T13:01:29.871Z,91932.38
2023-04-03T13:04:01.391Z,91935.41
2023-04-03T13:06:37.961Z,91931.81
2023-04-03T13:09:09.080Z,91921.53
2023-04-03T13:11:45.481Z,91926.34
2023-04-03T13:14:21.640Z,91922.53
2023-04-03T13:16:59.174Z,91913.59
2023-04-03T13:19:31.033Z,91914.16
2023-04-03T13:22:07.210Z,91915.94
2023-04-03T13:24:40.300Z,91922.81
2023-04-03T13:27:12.873Z,91916.47
2023-04-03T13:29:43.725Z,91907.72
2023-04-03T13:32:24.529Z,91916.22
2023-04-03T13:34:54.577Z,91910.56
2023-04-03T13:37:29.368Z,91907.56
2023-04-03T13:40:06.629Z,91893.69
2023-04-03T13:42:42.053Z,91904.13
2023-04-03T13:45:30.714Z,91900.69
2023-04-03T13:48:23.691Z,91891.59
2023-04-03T13:51:01.676Z,91904.06
2023-04-03T13:53:34.597Z,91893.38
2023-04-03T13:56:16.764Z,91901.91
2023-04-03T13:58:59.225Z,91892.81
2023-04-03T14:01:37.800Z,91887.50
2023-04-03T14:04:18.336Z,91892.56
2023-04-03T14:06:48.381Z,91890.22
2023-04-03T14:09:20.749Z,91884.91
2023-04-03T14:11:52.782Z,91880.06
2023-04-03T14:14:25.493Z,91887.03
2023-04-03T14:16:57.890Z,91887.97
2023-04-03T14:19:30.832Z,91883.75
2023-04-03T14:22:03.189Z,91878.66
2023-04-03T14:24:34.148Z,91866.47
2023-04-03T14:27:03.947Z,91876.84
2023-04-03T14:29:33.447Z,91869.03
2023-04-03T14:32:13.781Z,91864.66
2023-04-03T14:34:44.648Z,91863.00
2023-04-03T14:37:16.760Z,91852.16
2023-04-03T14:39:48.334Z,91845.03
2023-04-03T14:42:20.946Z,91834.47
2023-04-03T14:44:52.831Z,91832.03
2023-04-03T14:47:31.108Z,91819.00
2023-04-03T14:50:02.451Z,91820.06
2023-04-03T14:52:36.118Z,91804.69
2023-04-03T14:55:10.104Z,91820.31
2023-04-03T14:57:42.054Z,91816.34
2023-04-03T15:00:17.709Z,91806.47
2023-04-03T15:02:47.783Z,91809.06
2023-04-03T15:05:18.060Z,91808.25
2023-04-03T15:07:53.185Z,91824.69
2023-04-03T15:10:26.425Z,91817.56
2023-04-03T15:12:57.128Z,91810.59
2023-04-03T15:15:29.761Z,91809.88
2023-04-03T15:18:00.623Z,91809.88
2023-04-03T15:20:34.388Z,91810.53
2023-04-03T15:23:05.522Z,91823.13
2023-04-03T15:25:36.750Z,91822.31
2023-04-03T15:28:06.571Z,91816.97
2023-04-03T15:30:36.721Z,91807.53
2023-04-03T15:33:06.504Z,91805.75
2023-04-03T15:35:35.909Z,91801.63
2023-04-03T15:38:05.412Z,91797.66
2023-04-03T15:40:36.374Z,91800.25
2023-04-03T15:43:07.031Z,91798.03
2023-04-03T15:45:39.171Z,91801.72
2023-04-03T15:51:10.759Z,91789.41
2023-04-03T15:53:40.210Z,91778.03
2023-04-03T15:56:10.843Z,91777.31
2023-04-03T15:58:40.279Z,91755.44
2023-04-03T16:01:11.374Z,91755.13
2023-04-03T16:03:46.409Z,91751.03
2023-04-03T16:06:19.806Z,91736.63
2023-04-03T16:08:51.409Z,91736.19
2023-04-03T16:11:20.836Z,91712.78
2023-04-03T16:13:50.291Z,91720.16
2023-04-03T16:16:21.225Z,91719.06
2023-04-03T16:18:51.050Z,91699.22
2023-04-03T16:21:21.969Z,91703.19
2023-04-03T16:23:51.768Z,91690.28
2023-04-03T16:26:21.274Z,91699.19
2023-04-03T16:28:50.618Z,91684.25
2023-04-03T16:31:20.342Z,91666.31
2023-04-03T16:33:49.828Z,91668.22
2023-04-03T16:36:20.825Z,91675.31
2023-04-03T16:38:50.232Z,91668.38
2023-04-03T16:41:19.645Z,91681.38
2023-04-03T16:43:49.111Z,91691.50
2023-04-03T16:46:18.518Z,91691.78
2023-04-03T16:48:47.944Z,91686.84
2023-04-03T16:51:17.426Z,91677.66
2023-04-03T16:53:48.253Z,91655.47
2023-04-03T16:56:17.903Z,91654.75
2023-04-03T16:58:47.443Z,91671.47
2023-04-03T17:01:20.242Z,91654.88
2023-04-03T17:03:49.684Z,91650.50
2023-04-03T17:06:22.827Z,91649.84
2023-04-03T17:08:55.281Z,91632.84
2023-04-03T17:11:24.856Z,91631.59
2023-04-03T17:13:54.314Z,91628.16
2023-04-03T17:16:24.436Z,91605.84
2023-04-03T17:18:55.392Z,91622.94
2023-04-03T17:21:25.373Z,91616.34
2023-04-03T17:24:01.551Z,91611.44
2023-04-03T17:26:31.494Z,91601.53
2023-04-03T17:29:00.962Z,91598.53
2023-04-03T17:31:30.750Z,91578.97
2023-04-03T17:34:01.923Z,91588.94
2023-04-03T17:36:31.848Z,91572.66
2023-04-03T17:39:02.846Z,91577.31
2023-04-03T17:41:32.705Z,91553.78
2023-04-03T17:44:02.143Z,91565.81
2023-04-03T17:46:33.234Z,91590.88
2023-04-03T17:49:04.815Z,91575.94
2023-04-03T17:51:35.103Z,91584.56
2023-04-03T17:54:06.330Z,91597.69
2023-04-03T17:56:36.251Z,91598.09
2023-04-03T17:59:05.783Z,91566.91
2023-04-03T18:01:37.289Z,91567.97
2023-04-03T18:04:07.640Z,91561.41
2023-04-03T18:06:42.989Z,91564.97
2023-04-03T18:09:18.392Z,91575.50
2023-04-03T18:11:49.809Z,91586.81
2023-04-03T18:14:22.893Z,91596.28
2023-04-03T18:16:52.906Z,91577.25
2023-04-03T18:19:23.799Z,91576.56
2023-04-03T18:21:56.811Z,91565.09
2023-04-03T18:24:28.996Z,91560.72
2023-04-03T18:27:02.842Z,91573.97
2023-04-03T18:29:35.171Z,91541.56
2023-04-03T18:32:06.067Z,91543.09
2023-04-03T18:34:36.139Z,91559.50
2023-04-03T18:37:06.193Z,91562.94
2023-04-03T18:39:37.240Z,91554.72
2023-04-03T18:42:10.242Z,91554.59
2023-04-03T18:44:41.625Z,91561.56
2023-04-03T18:47:11.337Z,91554.59
2023-04-03T18:51:11.862Z,91562.28
2023-04-03T18:53:41.337Z,91565.41
2023-04-03T18:56:11.205Z,91549.69
2023-04-03T18:58:41.159Z,91542.84
2023-04-03T19:01:10.898Z,91556.53
2023-04-03T19:03:40.539Z,91548.91
2023-04-03T19:06:11.548Z,91566.72
2023-04-03T19:08:41.299Z,91563.19
2023-04-03T19:11:11.379Z,91568.41
2023-04-03T19:13:46.811Z,91590.69
2023-04-03T19:16:30.136Z,91584.69
2023-04-03T19:18:59.417Z,91564.03
2023-04-03T19:21:30.438Z,91564.03
2023-04-03T19:26:02.552Z,91555.25
2023-04-03T19:28:32.150Z,91550.88
2023-04-03T19:31:03.998Z,91542.00
2023-04-03T19:33:33.429Z,91550.06
2023-04-03T19:36:02.751Z,91588.66
2023-04-03T19:38:32.516Z,91591.25
2023-04-03T19:41:05.148Z,91566.22
2023-04-03T19:43:34.627Z,91546.38
2023-04-03T19:46:05.581Z,91524.84
2023-04-03T19:48:35.641Z,91527.31
2023-04-03T19:51:06.251Z,91511.19
2023-04-03T19:53:35.607Z,91504.47
2023-04-03T19:56:06.855Z,91520.88
2023-04-03T19:58:36.649Z,91532.81
2023-04-03T20:01:06.013Z,91520.34
2023-04-03T20:03:35.930Z,91525.56
2023-04-03T20:06:05.308Z,91516.91
2023-04-03T20:08:35.524Z,91507.47
2023-04-03T20:11:06.881Z,91502.00
2023-04-03T20:13:36.752Z,91510.38
2023-04-03T20:16:07.337Z,91517.19
2023-04-03T20:18:38.911Z,91524.19
2023-04-03T20:21:10.510Z,91548.69
2023-04-03T20:23:39.952Z,91516.38
2023-04-03T20:26:15.613Z,91532.00
2023-04-03T20:28:45.568Z,91526.38
2023-04-03T20:31:15.659Z,91559.91
2023-04-03T20:33:45.131Z,91592.78
2023-04-03T20:36:14.543Z,91587.97
2023-04-03T20:38:44.407Z,91576.44
2023-04-03T20:41:15.371Z,91564.25
2023-04-03T20:43:45.762Z,91556.84
2023-04-03T20:46:19.814Z,91561.25
2023-04-03T20:48:49.522Z,91572.97
2023-04-03T20:51:21.098Z,91563.78
2023-04-03T20:53:50.873Z,91559.81
2023-04-03T20:56:21.766Z,91553.22
2023-04-03T20:58:51.371Z,91545.44
2023-04-03T21:01:24.155Z,91543.13
2023-04-03T21:04:02.644Z,91565.94
2023-04-03T21:07:27.592Z,91545.56
2023-04-03T21:10:53.239Z,91542.41
2023-04-03T21:14:19.334Z,91545.66
2023-04-03T21:16:48.178Z,91534.56
2023-04-03T21:19:22.684Z,91516.66
2023-04-03T21:21:52.336Z,91487.00
2023-04-03T21:24:22.437Z,91513.09
2023-04-03T21:26:52.098Z,91532.22
2023-04-03T21:29:21.491Z,91536.19
2023-04-03T21:31:54.531Z,91530.56
2023-04-03T21:34:27.799Z,91541.19
2023-04-03T21:36:57.918Z,91544.63
2023-04-03T21:39:27.494Z,91544.38
2023-04-03T21:41:57.252Z,91535.88
2023-04-03T21:44:27.879Z,91527.25
2023-04-03T21:46:57.487Z,91517.50
2023-04-03T21:51:11.230Z,91533.38
2023-04-03T21:53:40.892Z,91535.16
2023-04-03T21:56:10.515Z,91528.69
2023-04-03T21:58:41.264Z,91534.03
2023-04-03T22:01:11.982Z,91522.25
2023-04-03T22:03:42.195Z,91523.88
2023-04-03T22:06:15.156Z,91532.63
2023-04-03T22:08:44.964Z,91526.38
2023-04-03T22:11:16.653Z,91525.66
2023-04-03T22:13:47.230Z,91513.88
2023-04-03T22:16:16.707Z,91513.47
2023-04-03T22:18:45.947Z,91506.63
2023-04-03T22:21:16.935Z,91502.38
2023-04-03T22:23:46.562Z,91497.16
2023-04-03T22:26:16.195Z,91505.25
2023-04-03T22:28:48.378Z,91501.69
2023-04-03T22:31:20.375Z,91506.19
2023-04-03T22:33:49.889Z,91502.50
2023-04-03T22:36:20.743Z,91504.28
2023-04-03T22:38:50.176Z,91509.22
2023-04-03T22:41:19.547Z,91505.81
2023-04-03T22:43:48.990Z,91510.03
2023-04-03T22:46:18.533Z,91518.09
2023-04-03T22:48:48.421Z,91523.41
2023-04-03T22:51:17.806Z,91524.47
2023-04-03T22:53:48.625Z,91516.00
2023-04-03T22:56:17.974Z,91505.50
2023-04-03T22:58:48.657Z,91507.13
2023-04-03T23:01:20.381Z,91493.09
2023-04-03T23:03:51.441Z,91479.97
2023-04-03T23:06:20.749Z,91489.94
2023-04-03T23:08:51.498Z,91488.06
2023-04-03T23:11:21.641Z,91488.63
2023-04-03T23:13:50.987Z,91484.50
2023-04-03T23:16:20.396Z,91484.25
2023-04-03T23:18:50.286Z,91480.56
2023-04-03T23:21:19.869Z,91481.28
2023-04-03T23:23:50.668Z,91482.75
2023-04-03T23:26:20.306Z,91476.63
2023-04-03T23:28:49.928Z,91480.63
2023-04-03T23:31:19.375Z,91471.88
2023-04-03T23:33:48.603Z,91480.63
2023-04-03T23:36:18.167Z,91478.94
2023-04-03T23:38:47.757Z,91483.06
2023-04-03T23:41:18.572Z,91474.31
2023-04-03T23:43:48.035Z,91490.72
2023-04-03T23:46:17.596Z,91481.03
2023-04-03T23:48:46.973Z,91473.25
2023-04-03T23:51:16.508Z,91477.63
2023-04-03T23:53:46.636Z,91473.38
2023-04-03T23:56:17.541Z,91468.88
2023-04-03T23:58:46.951Z,91477.50
